sensor_id;sensor_type;location;lat;lon;timestamp;temperature;humidity
63013;DHT22;62113;45.624;11.700;2024-03-23T00:55:24;16.20;55.40
63013;DHT22;62113;45.624;11.700;2024-03-23T00:57:50;16.10;55.50
63013;DHT22;62113;45.624;11.700;2024-03-23T01:00:15;16.10;55.00
63013;DHT22;62113;45.624;11.700;2024-03-23T01:02:41;16.00;55.20
63013;DHT22;62113;45.624;11.700;2024-03-23T01:05:07;16.00;55.20
63013;DHT22;62113;45.624;11.700;2024-03-23T01:07:32;16.00;55.30
63013;DHT22;62113;45.624;11.700;2024-03-23T01:09:58;16.00;55.30
63013;DHT22;62113;45.624;11.700;2024-03-23T01:12:23;16.00;55.40
63013;DHT22;62113;45.624;11.700;2024-03-23T01:14:49;15.90;55.30
63013;DHT22;62113;45.624;11.700;2024-03-23T01:17:15;15.90;55.40
63013;DHT22;62113;45.624;11.700;2024-03-23T01:19:40;15.90;55.40
63013;DHT22;62113;45.624;11.700;2024-03-23T01:22:07;15.80;55.40
63013;DHT22;62113;45.624;11.700;2024-03-23T01:24:32;15.80;55.50
63013;DHT22;62113;45.624;11.700;2024-03-23T01:26:58;15.80;55.50
63013;DHT22;62113;45.624;11.700;2024-03-23T01:29:24;15.80;55.40
63013;DHT22;62113;45.624;11.700;2024-03-23T01:31:49;15.80;55.40
63013;DHT22;62113;45.624;11.700;2024-03-23T01:34:15;15.80;55.40
63013;DHT22;62113;45.624;11.700;2024-03-23T01:36:40;15.80;55.50
63013;DHT22;62113;45.624;11.700;2024-03-23T01:39:06;15.80;55.30
63013;DHT22;62113;45.624;11.700;2024-03-23T01:41:35;15.70;55.40
63013;DHT22;62113;45.624;11.700;2024-03-23T01:44:05;15.70;55.50
63013;DHT22;62113;45.624;11.700;2024-03-23T01:46:33;15.70;55.60
63013;DHT22;62113;45.624;11.700;2024-03-23T01:48:59;15.70;55.60
63013;DHT22;62113;45.624;11.700;2024-03-23T01:51:24;15.70;55.70
63013;DHT22;62113;45.624;11.700;2024-03-23T01:53:51;15.60;55.70
63013;DHT22;62113;45.624;11.700;2024-03-23T01:56:18;15.60;55.80
63013;DHT22;62113;45.624;11.700;2024-03-23T01:58:44;15.60;55.80
63013;DHT22;62113;45.624;11.700;2024-03-23T02:01:10;15.60;55.80
63013;DHT22;62113;45.624;11.700;2024-03-23T02:03:36;15.60;55.80
63013;DHT22;62113;45.624;11.700;2024-03-23T02:06:02;15.60;55.90
63013;DHT22;62113;45.624;11.700;2024-03-23T02:08:28;15.60;55.90
63013;DHT22;62113;45.624;11.700;2024-03-23T02:10:54;15.50;56.00
63013;DHT22;62113;45.624;11.700;2024-03-23T02:13:20;15.50;56.00
63013;DHT22;62113;45.624;11.700;2024-03-23T02:15:46;15.50;56.00
63013;DHT22;62113;45.624;11.700;2024-03-23T02:18:12;15.50;56.00
63013;DHT22;62113;45.624;11.700;2024-03-23T02:20:38;15.50;56.00
63013;DHT22;62113;45.624;11.700;2024-03-23T02:23:04;15.50;56.10
63013;DHT22;62113;45.624;11.700;2024-03-23T02:25:32;15.50;56.10
63013;DHT22;62113;45.624;11.700;2024-03-23T02:27:58;15.40;56.10
63013;DHT22;62113;45.624;11.700;2024-03-23T02:30:25;15.40;56.10
63013;DHT22;62113;45.624;11.700;2024-03-23T02:32:50;15.40;56.10
63013;DHT22;62113;45.624;11.700;2024-03-23T02:35:16;15.40;56.10
63013;DHT22;62113;45.624;11.700;2024-03-23T02:37:42;15.40;56.20
63013;DHT22;62113;45.624;11.700;2024-03-23T02:40:07;15.40;56.20
63013;DHT22;62113;45.624;11.700;2024-03-23T02:42:33;15.40;56.30
63013;DHT22;62113;45.624;11.700;2024-03-23T02:44:59;15.40;56.30
63013;DHT22;62113;45.624;11.700;2024-03-23T02:47:25;15.40;56.40
63013;DHT22;62113;45.624;11.700;2024-03-23T02:49:50;15.30;56.40
63013;DHT22;62113;45.624;11.700;2024-03-23T02:52:16;15.30;56.40
63013;DHT22;62113;45.624;11.700;2024-03-23T02:54:41;15.30;56.50
63013;DHT22;62113;45.624;11.700;2024-03-23T02:57:11;15.20;56.60
63013;DHT22;62113;45.624;11.700;2024-03-23T02:59:36;15.20;56.60
63013;DHT22;62113;45.624;11.700;2024-03-23T03:02:02;15.20;56.70
63013;DHT22;62113;45.624;11.700;2024-03-23T03:04:30;15.20;56.70
63013;DHT22;62113;45.624;11.700;2024-03-23T03:06:56;15.20;56.80
63013;DHT22;62113;45.624;11.700;2024-03-23T03:09:21;15.20;56.80
63013;DHT22;62113;45.624;11.700;2024-03-23T03:11:47;15.30;56.70
63013;DHT22;62113;45.624;11.700;2024-03-23T03:14:13;15.20;56.80
63013;DHT22;62113;45.624;11.700;2024-03-23T03:16:38;15.20;56.70
63013;DHT22;62113;45.624;11.700;2024-03-23T03:19:04;15.20;56.90
63013;DHT22;62113;45.624;11.700;2024-03-23T03:21:30;15.20;56.70
63013;DHT22;62113;45.624;11.700;2024-03-23T03:23:55;15.20;56.70
63013;DHT22;62113;45.624;11.700;2024-03-23T03:26:22;15.20;56.80
63013;DHT22;62113;45.624;11.700;2024-03-23T03:28:48;15.20;56.80
63013;DHT22;62113;45.624;11.700;2024-03-23T03:31:14;15.20;56.90
63013;DHT22;62113;45.624;11.700;2024-03-23T03:33:40;15.20;56.90
63013;DHT22;62113;45.624;11.700;2024-03-23T03:36:06;15.20;56.90
63013;DHT22;62113;45.624;11.700;2024-03-23T03:38:31;15.20;56.90
63013;DHT22;62113;45.624;11.700;2024-03-23T03:40:57;15.10;56.90
63013;DHT22;62113;45.624;11.700;2024-03-23T03:43:24;15.00;57.20
63013;DHT22;62113;45.624;11.700;2024-03-23T03:45:56;15.00;57.30
63013;DHT22;62113;45.624;11.700;2024-03-23T03:48:22;15.00;57.20
63013;DHT22;62113;45.624;11.700;2024-03-23T03:50:49;15.00;57.20
63013;DHT22;62113;45.624;11.700;2024-03-23T03:53:14;15.00;57.20
63013;DHT22;62113;45.624;11.700;2024-03-23T03:55:40;15.00;57.00
63013;DHT22;62113;45.624;11.700;2024-03-23T03:58:06;15.00;57.10
63013;DHT22;62113;45.624;11.700;2024-03-23T04:00:31;15.00;57.00
63013;DHT22;62113;45.624;11.700;2024-03-23T04:02:57;15.00;57.00
63013;DHT22;62113;45.624;11.700;2024-03-23T04:05:23;15.00;57.00
63013;DHT22;62113;45.624;11.700;2024-03-23T04:07:49;15.00;56.90
63013;DHT22;62113;45.624;11.700;2024-03-23T04:10:14;14.90;57.10
63013;DHT22;62113;45.624;11.700;2024-03-23T04:12:41;14.90;57.20
63013;DHT22;62113;45.624;11.700;2024-03-23T04:15:07;14.80;57.20
63013;DHT22;62113;45.624;11.700;2024-03-23T04:17:34;14.80;57.20
63013;DHT22;62113;45.624;11.700;2024-03-23T04:20:00;14.80;57.20
63013;DHT22;62113;45.624;11.700;2024-03-23T04:22:26;14.80;57.20
63013;DHT22;62113;45.624;11.700;2024-03-23T04:24:58;14.70;57.30
63013;DHT22;62113;45.624;11.700;2024-03-23T04:27:23;14.70;57.40
63013;DHT22;62113;45.624;11.700;2024-03-23T04:29:50;14.70;57.50
63013;DHT22;62113;45.624;11.700;2024-03-23T04:32:16;14.70;57.50
63013;DHT22;62113;45.624;11.700;2024-03-23T04:34:43;14.70;57.50
63013;DHT22;62113;45.624;11.700;2024-03-23T04:37:09;14.70;57.50
63013;DHT22;62113;45.624;11.700;2024-03-23T04:39:38;14.70;57.50
63013;DHT22;62113;45.624;11.700;2024-03-23T04:42:04;14.70;57.30
63013;DHT22;62113;45.624;11.700;2024-03-23T04:44:30;14.70;57.30
63013;DHT22;62113;45.624;11.700;2024-03-23T04:47:00;14.70;57.30
63013;DHT22;62113;45.624;11.700;2024-03-23T04:49:26;14.70;57.20
63013;DHT22;62113;45.624;11.700;2024-03-23T04:51:52;14.70;57.30
63013;DHT22;62113;45.624;11.700;2024-03-23T04:54:17;14.60;57.30
63013;DHT22;62113;45.624;11.700;2024-03-23T04:56:43;14.60;57.30
63013;DHT22;62113;45.624;11.700;2024-03-23T04:59:09;14.60;57.30
63013;DHT22;62113;45.624;11.700;2024-03-23T05:01:34;14.60;57.20
63013;DHT22;62113;45.624;11.700;2024-03-23T05:04:01;14.60;57.20
63013;DHT22;62113;45.624;11.700;2024-03-23T05:06:27;14.50;57.20
63013;DHT22;62113;45.624;11.700;2024-03-23T05:08:52;14.50;57.10
63013;DHT22;62113;45.624;11.700;2024-03-23T05:11:18;14.60;57.10
63013;DHT22;62113;45.624;11.700;2024-03-23T05:13:44;14.50;57.00
63013;DHT22;62113;45.624;11.700;2024-03-23T05:16:10;14.50;57.00
63013;DHT22;62113;45.624;11.700;2024-03-23T05:18:35;14.50;57.00
63013;DHT22;62113;45.624;11.700;2024-03-23T05:21:01;14.50;57.10
63013;DHT22;62113;45.624;11.700;2024-03-23T05:23:28;14.50;57.20
63013;DHT22;62113;45.624;11.700;2024-03-23T05:25:54;14.60;57.10
63013;DHT22;62113;45.624;11.700;2024-03-23T05:28:21;14.60;57.00
63013;DHT22;62113;45.624;11.700;2024-03-23T05:30:55;14.60;57.00
63013;DHT22;62113;45.624;11.700;2024-03-23T05:33:22;14.60;56.90
63013;DHT22;62113;45.624;11.700;2024-03-23T05:35:56;14.60;56.90
63013;DHT22;62113;45.624;11.700;2024-03-23T05:38:23;14.70;56.90
63013;DHT22;62113;45.624;11.700;2024-03-23T05:43:20;14.80;56.80
63013;DHT22;62113;45.624;11.700;2024-03-23T05:45:46;14.80;56.70
63013;DHT22;62113;45.624;11.700;2024-03-23T05:48:18;14.90;56.50
63013;DHT22;62113;45.624;11.700;2024-03-23T05:50:43;15.20;56.50
63013;DHT22;62113;45.624;11.700;2024-03-23T05:53:09;15.40;56.30
63013;DHT22;62113;45.624;11.700;2024-03-23T05:55:35;15.80;55.60
63013;DHT22;62113;45.624;11.700;2024-03-23T05:58:00;16.20;54.80
63013;DHT22;62113;45.624;11.700;2024-03-23T06:00:26;16.40;54.00
63013;DHT22;62113;45.624;11.700;2024-03-23T06:02:52;16.70;53.80
63013;DHT22;62113;45.624;11.700;2024-03-23T06:05:17;17.00;53.20
63013;DHT22;62113;45.624;11.700;2024-03-23T06:07:43;17.30;52.60
63013;DHT22;62113;45.624;11.700;2024-03-23T06:10:08;17.80;52.00
63013;DHT22;62113;45.624;11.700;2024-03-23T06:12:34;18.50;51.70
63013;DHT22;62113;45.624;11.700;2024-03-23T06:15:00;19.40;51.20
63013;DHT22;62113;45.624;11.700;2024-03-23T06:17:26;20.40;49.30
63013;DHT22;62113;45.624;11.700;2024-03-23T06:19:51;21.50;47.50
63013;DHT22;62113;45.624;11.700;2024-03-23T06:22:17;22.40;45.90
63013;DHT22;62113;45.624;11.700;2024-03-23T06:24:42;23.30;44.60
63013;DHT22;62113;45.624;11.700;2024-03-23T06:27:08;24.00;43.10
63013;DHT22;62113;45.624;11.700;2024-03-23T06:29:34;24.70;41.90
63013;DHT22;62113;45.624;11.700;2024-03-23T06:31:59;25.40;40.70
63013;DHT22;62113;45.624;11.700;2024-03-23T06:34:25;25.80;39.30
63013;DHT22;62113;45.624;11.700;2024-03-23T06:36:50;25.70;38.30
63013;DHT22;62113;45.624;11.700;2024-03-23T06:39:16;25.10;38.20
63013;DHT22;62113;45.624;11.700;2024-03-23T06:41:52;24.30;38.70
63013;DHT22;62113;45.624;11.700;2024-03-23T06:44:18;23.50;39.30
63013;DHT22;62113;45.624;11.700;2024-03-23T06:46:44;22.80;40.20
63013;DHT22;62113;45.624;11.700;2024-03-23T06:49:10;22.20;41.00
63013;DHT22;62113;45.624;11.700;2024-03-23T06:51:36;21.70;42.00
63013;DHT22;62113;45.624;11.700;2024-03-23T06:54:03;21.20;42.90
63013;DHT22;62113;45.624;11.700;2024-03-23T06:56:29;21.00;43.90
63013;DHT22;62113;45.624;11.700;2024-03-23T06:58:56;21.00;44.40
63013;DHT22;62113;45.624;11.700;2024-03-23T07:01:21;21.10;44.50
63013;DHT22;62113;45.624;11.700;2024-03-23T07:03:47;21.50;44.90
63013;DHT22;62113;45.624;11.700;2024-03-23T07:06:12;22.30;44.00
63013;DHT22;62113;45.624;11.700;2024-03-23T07:08:38;23.30;43.70
63013;DHT22;62113;45.624;11.700;2024-03-23T07:11:04;24.30;42.20
63013;DHT22;62113;45.624;11.700;2024-03-23T07:13:30;25.50;39.40
63013;DHT22;62113;45.624;11.700;2024-03-23T07:15:56;26.70;37.50
63013;DHT22;62113;45.624;11.700;2024-03-23T07:18:22;27.60;36.30
63013;DHT22;62113;45.624;11.700;2024-03-23T07:20:53;28.20;34.60
63013;DHT22;62113;45.624;11.700;2024-03-23T07:23:18;28.30;34.20
63013;DHT22;62113;45.624;11.700;2024-03-23T07:25:44;28.50;35.00
63013;DHT22;62113;45.624;11.700;2024-03-23T07:28:09;29.10;34.50
63013;DHT22;62113;45.624;11.700;2024-03-23T07:30:35;29.80;34.10
63013;DHT22;62113;45.624;11.700;2024-03-23T07:33:01;30.50;32.40
63013;DHT22;62113;45.624;11.700;2024-03-23T07:35:26;31.10;31.80
63013;DHT22;62113;45.624;11.700;2024-03-23T07:37:52;31.70;29.70
63013;DHT22;62113;45.624;11.700;2024-03-23T07:40:18;32.00;29.50
63013;DHT22;62113;45.624;11.700;2024-03-23T07:42:43;32.30;29.30
63013;DHT22;62113;45.624;11.700;2024-03-23T07:45:09;32.30;29.00
63013;DHT22;62113;45.624;11.700;2024-03-23T07:47:35;32.10;28.70
63013;DHT22;62113;45.624;11.700;2024-03-23T07:50:00;32.00;27.70
63013;DHT22;62113;45.624;11.700;2024-03-23T07:52:29;31.80;27.30
63013;DHT22;62113;45.624;11.700;2024-03-23T07:54:54;31.70;28.30
63013;DHT22;62113;45.624;11.700;2024-03-23T07:57:20;31.30;29.70
63013;DHT22;62113;45.624;11.700;2024-03-23T07:59:46;30.80;30.10
63013;DHT22;62113;45.624;11.700;2024-03-23T08:02:12;30.50;29.90
63013;DHT22;62113;45.624;11.700;2024-03-23T08:04:37;30.50;31.60
63013;DHT22;62113;45.624;11.700;2024-03-23T08:07:03;30.70;30.50
63013;DHT22;62113;45.624;11.700;2024-03-23T08:09:29;31.00;30.40
63013;DHT22;62113;45.624;11.700;2024-03-23T08:11:54;31.20;30.70
63013;DHT22;62113;45.624;11.700;2024-03-23T08:14:20;31.60;29.40
63013;DHT22;62113;45.624;11.700;2024-03-23T08:16:45;31.70;28.90
63013;DHT22;62113;45.624;11.700;2024-03-23T08:19:14;31.80;29.70
63013;DHT22;62113;45.624;11.700;2024-03-23T08:21:40;32.20;29.20
63013;DHT22;62113;45.624;11.700;2024-03-23T08:24:06;32.20;28.40
63013;DHT22;62113;45.624;11.700;2024-03-23T08:26:31;32.20;28.30
63013;DHT22;62113;45.624;11.700;2024-03-23T08:28:57;32.20;28.70
63013;DHT22;62113;45.624;11.700;2024-03-23T08:31:22;32.20;28.80
63013;DHT22;62113;45.624;11.700;2024-03-23T08:33:48;32.50;29.20
63013;DHT22;62113;45.624;11.700;2024-03-23T08:36:14;32.70;28.70
63013;DHT22;62113;45.624;11.700;2024-03-23T08:38:40;32.70;28.40
63013;DHT22;62113;45.624;11.700;2024-03-23T08:41:08;32.80;28.60
63013;DHT22;62113;45.624;11.700;2024-03-23T08:43:41;32.80;28.50
63013;DHT22;62113;45.624;11.700;2024-03-23T08:48:35;32.20;28.90
63013;DHT22;62113;45.624;11.700;2024-03-23T08:53:30;32.30;29.50
63013;DHT22;62113;45.624;11.700;2024-03-23T08:55:57;32.10;29.40
63013;DHT22;62113;45.624;11.700;2024-03-23T08:58:24;31.80;29.50
63013;DHT22;62113;45.624;11.700;2024-03-23T09:00:51;31.30;30.00
63013;DHT22;62113;45.624;11.700;2024-03-23T09:03:17;30.80;30.90
63013;DHT22;62113;45.624;11.700;2024-03-23T09:05:42;30.20;32.20
63013;DHT22;62113;45.624;11.700;2024-03-23T09:08:08;29.40;33.00
63013;DHT22;62113;45.624;11.700;2024-03-23T09:10:41;28.70;33.80
63013;DHT22;62113;45.624;11.700;2024-03-23T09:13:09;28.00;34.90
63013;DHT22;62113;45.624;11.700;2024-03-23T09:15:35;27.50;36.00
63013;DHT22;62113;45.624;11.700;2024-03-23T09:18:04;27.20;36.60
63013;DHT22;62113;45.624;11.700;2024-03-23T09:20:33;26.70;37.70
63013;DHT22;62113;45.624;11.700;2024-03-23T09:22:59;26.20;37.80
63013;DHT22;62113;45.624;11.700;2024-03-23T09:25:24;26.00;39.20
63013;DHT22;62113;45.624;11.700;2024-03-23T09:27:50;25.60;39.70
63013;DHT22;62113;45.624;11.700;2024-03-23T09:30:16;25.30;40.30
63013;DHT22;62113;45.624;11.700;2024-03-23T09:32:43;25.00;40.90
63013;DHT22;62113;45.624;11.700;2024-03-23T09:35:09;24.70;41.90
63013;DHT22;62113;45.624;11.700;2024-03-23T09:37:35;24.60;41.50
63013;DHT22;62113;45.624;11.700;2024-03-23T09:40:01;24.40;42.30
63013;DHT22;62113;45.624;11.700;2024-03-23T09:42:27;24.30;42.10
63013;DHT22;62113;45.624;11.700;2024-03-23T09:44:54;24.20;42.30
63013;DHT22;62113;45.624;11.700;2024-03-23T09:47:24;24.20;42.50
63013;DHT22;62113;45.624;11.700;2024-03-23T09:49:50;24.20;42.90
63013;DHT22;62113;45.624;11.700;2024-03-23T09:52:16;24.20;42.90
63013;DHT22;62113;45.624;11.700;2024-03-23T09:54:42;24.20;43.60
63013;DHT22;62113;45.624;11.700;2024-03-23T09:57:08;24.20;43.20
63013;DHT22;62113;45.624;11.700;2024-03-23T09:59:33;24.20;43.00
63013;DHT22;62113;45.624;11.700;2024-03-23T10:02:01;24.10;42.70
63013;DHT22;62113;45.624;11.700;2024-03-23T10:04:37;24.10;42.90
63013;DHT22;62113;45.624;11.700;2024-03-23T10:07:19;24.00;43.10
63013;DHT22;62113;45.624;11.700;2024-03-23T10:09:45;24.00;43.10
63013;DHT22;62113;45.624;11.700;2024-03-23T10:12:13;24.00;43.20
63013;DHT22;62113;45.624;11.700;2024-03-23T10:14:42;24.10;43.10
63013;DHT22;62113;45.624;11.700;2024-03-23T10:17:19;24.20;43.30
63013;DHT22;62113;45.624;11.700;2024-03-23T10:19:46;24.20;43.30
63013;DHT22;62113;45.624;11.700;2024-03-23T10:22:14;24.30;42.90
63013;DHT22;62113;45.624;11.700;2024-03-23T10:24:41;24.30;43.00
63013;DHT22;62113;45.624;11.700;2024-03-23T10:27:08;24.40;43.40
63013;DHT22;62113;45.624;11.700;2024-03-23T10:29:33;24.40;43.10
63013;DHT22;62113;45.624;11.700;2024-03-23T10:32:12;24.40;42.60
63013;DHT22;62113;45.624;11.700;2024-03-23T10:34:38;24.30;42.90
63013;DHT22;62113;45.624;11.700;2024-03-23T10:37:05;24.30;42.80
63013;DHT22;62113;45.624;11.700;2024-03-23T10:39:33;24.40;42.50
63013;DHT22;62113;45.624;11.700;2024-03-23T10:42:02;24.30;42.20
63013;DHT22;62113;45.624;11.700;2024-03-23T10:44:28;24.30;42.30
63013;DHT22;62113;45.624;11.700;2024-03-23T10:46:59;24.30;42.50
63013;DHT22;62113;45.624;11.700;2024-03-23T10:49:30;24.30;42.60
63013;DHT22;62113;45.624;11.700;2024-03-23T10:52:04;24.30;43.00
63013;DHT22;62113;45.624;11.700;2024-03-23T10:54:31;24.30;42.80
63013;DHT22;62113;45.624;11.700;2024-03-23T10:57:02;24.30;42.60
63013;DHT22;62113;45.624;11.700;2024-03-23T10:59:29;24.20;42.50
63013;DHT22;62113;45.624;11.700;2024-03-23T11:01:57;24.10;42.60
63013;DHT22;62113;45.624;11.700;2024-03-23T11:04:38;24.10;43.20
63013;DHT22;62113;45.624;11.700;2024-03-23T11:09:48;24.10;43.60
63013;DHT22;62113;45.624;11.700;2024-03-23T11:14:59;24.10;42.70
63013;DHT22;62113;45.624;11.700;2024-03-23T11:17:26;24.00;42.60
63013;DHT22;62113;45.624;11.700;2024-03-23T11:20:12;23.90;43.20
63013;DHT22;62113;45.624;11.700;2024-03-23T11:22:39;23.80;43.70
63013;DHT22;62113;45.624;11.700;2024-03-23T11:25:14;23.80;43.70
63013;DHT22;62113;45.624;11.700;2024-03-23T11:27:40;23.80;43.90
63013;DHT22;62113;45.624;11.700;2024-03-23T11:30:16;23.80;43.60
63013;DHT22;62113;45.624;11.700;2024-03-23T11:32:43;23.90;43.60
63013;DHT22;62113;45.624;11.700;2024-03-23T11:35:09;23.90;43.90
63013;DHT22;62113;45.624;11.700;2024-03-23T11:37:36;23.90;43.80
63013;DHT22;62113;45.624;11.700;2024-03-23T11:40:17;23.90;43.70
63013;DHT22;62113;45.624;11.700;2024-03-23T11:43:04;23.70;43.50
63013;DHT22;62113;45.624;11.700;2024-03-23T11:45:44;23.80;43.50
63013;DHT22;62113;45.624;11.700;2024-03-23T11:48:28;23.80;43.60
63013;DHT22;62113;45.624;11.700;2024-03-23T11:50:57;23.70;43.90
63013;DHT22;62113;45.624;11.700;2024-03-23T11:53:24;23.50;43.90
63013;DHT22;62113;45.624;11.700;2024-03-23T11:55:53;23.40;44.50
63013;DHT22;62113;45.624;11.700;2024-03-23T11:58:23;23.20;44.00
63013;DHT22;62113;45.624;11.700;2024-03-23T12:00:59;23.30;44.30
63013;DHT22;62113;45.624;11.700;2024-03-23T12:03:26;23.40;44.30
63013;DHT22;62113;45.624;11.700;2024-03-23T12:05:53;23.50;44.50
63013;DHT22;62113;45.624;11.700;2024-03-23T12:13:17;23.50;43.70
63013;DHT22;62113;45.624;11.700;2024-03-23T12:15:47;23.60;44.30
63013;DHT22;62113;45.624;11.700;2024-03-23T12:18:13;23.70;43.90
63013;DHT22;62113;45.624;11.700;2024-03-23T12:20:39;23.70;43.00
63013;DHT22;62113;45.624;11.700;2024-03-23T12:23:09;23.80;42.40
63013;DHT22;62113;45.624;11.700;2024-03-23T12:25:35;23.80;42.90
63013;DHT22;62113;45.624;11.700;2024-03-23T12:28:01;23.90;43.10
63013;DHT22;62113;45.624;11.700;2024-03-23T12:30:27;24.00;42.20
63013;DHT22;62113;45.624;11.700;2024-03-23T12:32:53;23.90;42.40
63013;DHT22;62113;45.624;11.700;2024-03-23T12:35:18;23.60;42.70
63013;DHT22;62113;45.624;11.700;2024-03-23T12:37:44;23.40;42.40
63013;DHT22;62113;45.624;11.700;2024-03-23T12:40:10;23.20;41.70
63013;DHT22;62113;45.624;11.700;2024-03-23T12:42:36;23.20;42.40
63013;DHT22;62113;45.624;11.700;2024-03-23T12:45:01;23.10;42.70
63013;DHT22;62113;45.624;11.700;2024-03-23T12:47:28;23.20;42.30
63013;DHT22;62113;45.624;11.700;2024-03-23T12:49:53;23.20;42.60
63013;DHT22;62113;45.624;11.700;2024-03-23T12:52:19;23.20;42.90
63013;DHT22;62113;45.624;11.700;2024-03-23T12:54:47;23.40;42.90
63013;DHT22;62113;45.624;11.700;2024-03-23T12:57:12;23.40;43.10
63013;DHT22;62113;45.624;11.700;2024-03-23T12:59:38;23.40;43.00
63013;DHT22;62113;45.624;11.700;2024-03-23T13:02:03;23.50;42.40
63013;DHT22;62113;45.624;11.700;2024-03-23T13:04:29;23.50;42.50
63013;DHT22;62113;45.624;11.700;2024-03-23T13:06:54;23.60;43.00
63013;DHT22;62113;45.624;11.700;2024-03-23T13:09:20;23.60;43.10
63013;DHT22;62113;45.624;11.700;2024-03-23T13:11:46;23.60;43.00
63013;DHT22;62113;45.624;11.700;2024-03-23T13:14:11;23.60;42.70
63013;DHT22;62113;45.624;11.700;2024-03-23T13:16:39;23.50;42.70
63013;DHT22;62113;45.624;11.700;2024-03-23T13:19:05;23.50;43.40
63013;DHT22;62113;45.624;11.700;2024-03-23T13:21:31;23.50;43.10
63013;DHT22;62113;45.624;11.700;2024-03-23T13:23:57;23.40;42.20
63013;DHT22;62113;45.624;11.700;2024-03-23T13:26:22;23.30;42.10
63013;DHT22;62113;45.624;11.700;2024-03-23T13:28:48;23.20;41.90
63013;DHT22;62113;45.624;11.700;2024-03-23T13:31:14;23.10;43.40
63013;DHT22;62113;45.624;11.700;2024-03-23T13:33:39;23.00;43.80
63013;DHT22;62113;45.624;11.700;2024-03-23T13:36:07;23.00;43.80
63013;DHT22;62113;45.624;11.700;2024-03-23T13:38:33;22.90;44.30
63013;DHT22;62113;45.624;11.700;2024-03-23T13:41:00;22.80;44.30
63013;DHT22;62113;45.624;11.700;2024-03-23T13:43:26;22.80;44.40
63013;DHT22;62113;45.624;11.700;2024-03-23T13:45:58;22.80;44.20
63013;DHT22;62113;45.624;11.700;2024-03-23T13:48:26;22.80;43.70
63013;DHT22;62113;45.624;11.700;2024-03-23T13:50:59;22.80;43.60
63013;DHT22;62113;45.624;11.700;2024-03-23T13:53:25;22.80;42.60
63013;DHT22;62113;45.624;11.700;2024-03-23T13:55:50;22.80;43.20
63013;DHT22;62113;45.624;11.700;2024-03-23T13:58:16;22.80;43.10
63013;DHT22;62113;45.624;11.700;2024-03-23T14:00:42;22.70;43.40
63013;DHT22;62113;45.624;11.700;2024-03-23T14:03:11;22.80;43.30
63013;DHT22;62113;45.624;11.700;2024-03-23T14:05:37;23.00;43.50
63013;DHT22;62113;45.624;11.700;2024-03-23T14:08:09;22.90;43.50
63013;DHT22;62113;45.624;11.700;2024-03-23T14:10:35;23.00;42.80
63013;DHT22;62113;45.624;11.700;2024-03-23T14:13:04;23.00;41.80
63013;DHT22;62113;45.624;11.700;2024-03-23T14:15:30;22.90;42.70
63013;DHT22;62113;45.624;11.700;2024-03-23T14:17:56;22.80;42.10
63013;DHT22;62113;45.624;11.700;2024-03-23T14:20:22;22.80;42.70
63013;DHT22;62113;45.624;11.700;2024-03-23T14:22:49;22.80;43.20
63013;DHT22;62113;45.624;11.700;2024-03-23T14:25:15;22.80;43.30
63013;DHT22;62113;45.624;11.700;2024-03-23T14:27:41;22.80;43.60
63013;DHT22;62113;45.624;11.700;2024-03-23T14:30:07;22.90;43.60
63013;DHT22;62113;45.624;11.700;2024-03-23T14:32:34;23.00;43.10
63013;DHT22;62113;45.624;11.700;2024-03-23T14:35:03;23.00;42.70
63013;DHT22;62113;45.624;11.700;2024-03-23T14:37:29;23.00;42.80
63013;DHT22;62113;45.624;11.700;2024-03-23T14:39:58;23.00;42.40
63013;DHT22;62113;45.624;11.700;2024-03-23T14:42:24;22.90;42.10
63013;DHT22;62113;45.624;11.700;2024-03-23T14:44:51;22.90;42.70
63013;DHT22;62113;45.624;11.700;2024-03-23T14:47:17;22.90;42.70
63013;DHT22;62113;45.624;11.700;2024-03-23T14:49:43;22.80;42.00
63013;DHT22;62113;45.624;11.700;2024-03-23T14:52:18;22.70;41.90
63013;DHT22;62113;45.624;11.700;2024-03-23T14:54:44;22.70;42.90
63013;DHT22;62113;45.624;11.700;2024-03-23T14:57:10;22.70;43.90
63013;DHT22;62113;45.624;11.700;2024-03-23T14:59:36;22.70;43.40
63013;DHT22;62113;45.624;11.700;2024-03-23T15:02:04;22.80;43.10
63013;DHT22;62113;45.624;11.700;2024-03-23T15:04:29;22.80;43.00
63013;DHT22;62113;45.624;11.700;2024-03-23T15:06:55;22.90;42.70
63013;DHT22;62113;45.624;11.700;2024-03-23T15:09:20;23.00;42.20
63013;DHT22;62113;45.624;11.700;2024-03-23T15:11:46;23.00;41.80
63013;DHT22;62113;45.624;11.700;2024-03-23T15:14:12;23.00;41.60
63013;DHT22;62113;45.624;11.700;2024-03-23T15:16:37;23.00;41.60
63013;DHT22;62113;45.624;11.700;2024-03-23T15:19:03;22.80;41.60
63013;DHT22;62113;45.624;11.700;2024-03-23T15:21:31;22.70;41.60
63013;DHT22;62113;45.624;11.700;2024-03-23T15:23:57;22.60;42.10
63013;DHT22;62113;45.624;11.700;2024-03-23T15:26:23;22.60;42.40
63013;DHT22;62113;45.624;11.700;2024-03-23T15:28:49;22.50;42.90
63013;DHT22;62113;45.624;11.700;2024-03-23T15:31:25;22.40;43.00
63013;DHT22;62113;45.624;11.700;2024-03-23T15:33:51;22.40;43.00
63013;DHT22;62113;45.624;11.700;2024-03-23T15:36:17;22.30;43.10
63013;DHT22;62113;45.624;11.700;2024-03-23T15:38:43;22.30;43.20
63013;DHT22;62113;45.624;11.700;2024-03-23T15:41:09;22.20;43.20
63013;DHT22;62113;45.624;11.700;2024-03-23T15:43:35;22.20;43.20
63013;DHT22;62113;45.624;11.700;2024-03-23T15:46:02;22.20;43.40
63013;DHT22;62113;45.624;11.700;2024-03-23T15:48:29;22.20;43.50
63013;DHT22;62113;45.624;11.700;2024-03-23T15:50:56;22.20;43.30
63013;DHT22;62113;45.624;11.700;2024-03-23T15:53:23;22.20;43.60
63013;DHT22;62113;45.624;11.700;2024-03-23T15:55:54;22.20;43.60
63013;DHT22;62113;45.624;11.700;2024-03-23T15:58:24;22.20;43.20
63013;DHT22;62113;45.624;11.700;2024-03-23T16:01:06;22.20;42.80
63013;DHT22;62113;45.624;11.700;2024-03-23T16:03:38;22.30;42.90
63013;DHT22;62113;45.624;11.700;2024-03-23T16:06:05;22.30;42.90
63013;DHT22;62113;45.624;11.700;2024-03-23T16:08:32;22.40;42.90
63013;DHT22;62113;45.624;11.700;2024-03-23T16:11:02;22.50;42.80
63013;DHT22;62113;45.624;11.700;2024-03-23T16:13:28;22.50;42.80
63013;DHT22;62113;45.624;11.700;2024-03-23T16:15:57;22.50;42.50
63013;DHT22;62113;45.624;11.700;2024-03-23T16:18:24;22.50;42.60
63013;DHT22;62113;45.624;11.700;2024-03-23T16:21:03;22.40;42.60
63013;DHT22;62113;45.624;11.700;2024-03-23T16:23:29;22.40;42.70
63013;DHT22;62113;45.624;11.700;2024-03-23T16:25:55;22.30;42.50